createdAt,value
2018-10-03T00:02:20.890Z,99438.10
2018-10-03T00:04:49.313Z,99444.31
2018-10-03T00:07:18.268Z,99446.89
2018-10-03T00:09:46.698Z,99448.23
2018-10-03T00:12:15.250Z,99442.99
2018-10-03T00:14:43.753Z,99448.50
2018-10-03T00:17:12.249Z,99450.59
2018-10-03T00:19:40.736Z,99457.53
2018-10-03T00:22:09.222Z,99460.42
2018-10-03T00:24:37.631Z,99460.67
2018-10-03T00:27:06.637Z,99464.45
2018-10-03T00:29:35.161Z,99462.00
2018-10-03T00:32:03.730Z,99452.85
2018-10-03T00:34:32.133Z,99458.11
2018-10-03T00:37:00.630Z,99452.85
2018-10-03T00:39:29.078Z,99449.94
2018-10-03T00:41:57.742Z,99446.50
2018-10-03T00:44:26.206Z,99450.17
2018-10-03T00:46:54.648Z,99448.83
2018-10-03T00:49:23.115Z,99454.21
2018-10-03T00:51:51.613Z,99456.12
2018-10-03T00:54:20.237Z,99461.00
2018-10-03T00:56:48.663Z,99458.69
2018-10-03T00:59:17.354Z,99460.98
2018-10-03T01:01:45.831Z,99451.08
2018-10-03T01:04:14.321Z,99445.36
2018-10-03T01:06:42.786Z,99445.28
2018-10-03T01:09:11.314Z,99439.78
2018-10-03T01:11:39.750Z,99441.28
2018-10-03T01:14:08.241Z,99435.19
2018-10-03T01:16:36.734Z,99432.99
2018-10-03T01:19:05.444Z,99435.58
2018-10-03T01:21:33.899Z,99433.48
2018-10-03T01:24:02.386Z,99436.52
2018-10-03T01:26:31.018Z,99435.19
2018-10-03T01:28:59.566Z,99431.75
2018-10-03T01:31:28.194Z,99431.75
2018-10-03T01:33:56.822Z,99436.17
2018-10-03T01:36:25.271Z,99437.00
2018-10-03T01:38:53.795Z,99436.09
2018-10-03T01:41:22.242Z,99436.92
2018-10-03T01:43:50.736Z,99431.11
2018-10-03T01:46:19.270Z,99430.61
2018-10-03T01:48:47.712Z,99428.68
2018-10-03T01:51:16.478Z,99435.06
2018-10-03T01:53:45.136Z,99428.63
2018-10-03T01:56:13.753Z,99422.77
2018-10-03T01:58:42.314Z,99424.94
2018-10-03T02:01:10.817Z,99421.84
2018-10-03T02:03:39.325Z,99421.86
2018-10-03T02:06:07.789Z,99418.72
2018-10-03T02:08:36.285Z,99415.30
2018-10-03T02:11:04.982Z,99421.74
2018-10-03T02:13:33.409Z,99417.21
2018-10-03T02:16:01.853Z,99422.93
2018-10-03T02:18:30.302Z,99424.27
2018-10-03T02:20:59.021Z,99433.55
2018-10-03T02:23:27.658Z,99433.16
2018-10-03T02:25:56.415Z,99433.66
2018-10-03T02:28:24.954Z,99430.84
2018-10-03T02:30:53.404Z,99432.31
2018-10-03T02:33:21.878Z,99430.02
2018-10-03T02:35:50.445Z,99430.97
2018-10-03T02:38:19.270Z,99432.80
2018-10-03T02:40:47.945Z,99436.08
2018-10-03T02:43:16.491Z,99440.95
2018-10-03T02:45:45.062Z,99436.83
2018-10-03T02:48:13.501Z,99445.61
2018-10-03T02:50:42.008Z,99445.61
2018-10-03T02:53:10.421Z,99438.06
2018-10-03T02:55:38.855Z,99445.34
2018-10-03T02:58:07.330Z,99446.31
2018-10-03T03:00:35.832Z,99451.78
2018-10-03T03:03:04.442Z,99457.73
2018-10-03T03:05:32.910Z,99455.28
2018-10-03T03:08:01.372Z,99451.61
2018-10-03T03:10:29.946Z,99450.86
2018-10-03T03:12:58.665Z,99458.58
2018-10-03T03:15:27.201Z,99462.92
2018-10-03T03:17:55.736Z,99461.19
2018-10-03T03:20:24.189Z,99465.73
2018-10-03T03:22:52.649Z,99465.81
2018-10-03T03:25:21.220Z,99470.19
2018-10-03T03:27:49.729Z,99471.26
2018-10-03T03:30:18.454Z,99471.75
2018-10-03T03:32:46.994Z,99470.89
2018-10-03T03:35:15.508Z,99478.04
2018-10-03T03:37:43.990Z,99470.95
2018-10-03T03:40:12.453Z,99475.72
2018-10-03T03:42:40.907Z,99463.23
2018-10-03T03:45:09.452Z,99459.00
2018-10-03T03:47:37.877Z,99467.34
2018-10-03T03:50:06.522Z,99468.55
2018-10-03T03:52:34.947Z,99472.12
2018-10-03T03:55:03.509Z,99473.63
2018-10-03T03:57:31.983Z,99480.81
2018-10-03T04:00:00.678Z,99482.61
2018-10-03T04:02:29.177Z,99486.75
2018-10-03T04:04:57.713Z,99495.84
2018-10-03T04:07:26.219Z,99488.41
2018-10-03T04:09:54.719Z,99483.48
2018-10-03T04:12:23.237Z,99487.77
2018-10-03T04:14:51.659Z,99491.59
2018-10-03T04:17:20.456Z,99495.61
2018-10-03T04:19:49.199Z,99491.81
2018-10-03T04:22:17.936Z,99484.00
2018-10-03T04:24:46.435Z,99490.08
2018-10-03T04:27:14.981Z,99491.63
2018-10-03T04:29:43.385Z,99487.41
2018-10-03T04:32:11.906Z,99489.72
2018-10-03T04:34:40.366Z,99489.23
2018-10-03T04:37:08.854Z,99491.81
2018-10-03T04:39:37.330Z,99489.89
2018-10-03T04:42:06.178Z,99491.11
2018-10-03T04:44:34.694Z,99491.95
2018-10-03T04:47:03.262Z,99491.37
2018-10-03T04:49:31.878Z,99493.02
2018-10-03T04:52:00.427Z,99496.77
2018-10-03T04:54:28.912Z,99494.00
2018-10-03T04:56:57.598Z,99498.86
2018-10-03T04:59:26.221Z,99504.13
2018-10-03T05:01:54.709Z,99513.98
2018-10-03T05:04:23.174Z,99511.03
2018-10-03T05:06:51.666Z,99522.86
2018-10-03T05:09:20.329Z,99519.33
2018-10-03T05:11:49.052Z,99513.00
2018-10-03T05:14:17.961Z,99508.98
2018-10-03T05:16:46.439Z,99506.31
2018-10-03T05:19:14.888Z,99500.59
2018-10-03T05:21:43.476Z,99504.88
2018-10-03T05:24:11.950Z,99504.39
2018-10-03T05:26:40.367Z,99507.16
2018-10-03T05:29:08.818Z,99510.55
2018-10-03T05:31:37.229Z,99516.41
2018-10-03T05:34:05.941Z,99509.81
2018-10-03T05:36:34.453Z,99503.52
2018-10-03T05:39:02.989Z,99504.86
2018-10-03T05:41:31.471Z,99511.34
2018-10-03T05:44:00.039Z,99522.45
2018-10-03T05:46:28.486Z,99532.22
2018-10-03T05:48:57.111Z,99531.91
2018-10-03T05:51:25.768Z,99540.84
2018-10-03T05:53:54.202Z,99541.39
2018-10-03T05:56:22.618Z,99541.39
2018-10-03T05:58:51.157Z,99543.48
2018-10-03T06:01:19.770Z,99538.50
2018-10-03T06:03:48.305Z,99540.02
2018-10-03T06:06:16.832Z,99538.19
2018-10-03T06:08:45.333Z,99537.88
2018-10-03T06:11:13.803Z,99541.31
2018-10-03T06:13:42.302Z,99543.37
2018-10-03T06:16:10.816Z,99542.80
2018-10-03T06:18:39.315Z,99544.31
2018-10-03T06:21:07.823Z,99544.36
2018-10-03T06:23:36.346Z,99545.38
2018-10-03T06:26:04.960Z,99545.66
2018-10-03T06:28:33.405Z,99540.92
2018-10-03T06:31:01.894Z,99540.29
2018-10-03T06:33:30.375Z,99544.63
2018-10-03T06:35:58.958Z,99544.25
2018-10-03T06:38:27.833Z,99542.32
2018-10-03T06:40:56.321Z,99542.82
2018-10-03T06:43:24.903Z,99544.95
2018-10-03T06:45:53.394Z,99543.12
2018-10-03T06:48:22.045Z,99543.87
2018-10-03T06:50:50.525Z,99550.96
2018-10-03T06:53:19.043Z,99552.30
2018-10-03T06:55:47.510Z,99557.14
2018-10-03T06:58:16.129Z,99560.34
2018-10-03T07:00:44.589Z,99567.54
2018-10-03T07:03:13.086Z,99569.69
2018-10-03T07:05:41.536Z,99566.93
2018-10-03T07:08:09.998Z,99573.89
2018-10-03T07:10:38.505Z,99572.84
2018-10-03T07:13:07.006Z,99561.97
2018-10-03T07:15:35.524Z,99562.72
2018-10-03T07:18:04.202Z,99574.10
2018-10-03T07:20:32.775Z,99572.37
2018-10-03T07:23:01.261Z,99579.36
2018-10-03T07:25:29.826Z,99579.19
2018-10-03T07:27:58.373Z,99583.49
2018-10-03T07:30:26.905Z,99580.36
2018-10-03T07:32:55.424Z,99585.02
2018-10-03T07:35:23.921Z,99587.71
2018-10-03T07:37:52.438Z,99595.19
2018-10-03T07:40:20.902Z,99598.85
2018-10-03T07:42:49.353Z,99596.87
2018-10-03T07:45:18.242Z,99597.41
2018-10-03T07:47:46.738Z,99601.23
2018-10-03T07:50:15.262Z,99603.39
2018-10-03T07:52:43.702Z,99605.91
2018-10-03T07:55:12.224Z,99604.89
2018-10-03T07:57:40.645Z,99612.32
2018-10-03T08:00:09.474Z,99614.83
2018-10-03T08:02:38.098Z,99615.27
2018-10-03T08:05:07.113Z,99614.23
2018-10-03T08:07:35.511Z,99615.13
2018-10-03T08:10:04.218Z,99613.38
2018-10-03T08:12:32.677Z,99610.75
2018-10-03T08:15:01.175Z,99610.55
2018-10-03T08:17:29.918Z,99611.56
2018-10-03T08:19:58.602Z,99615.13
2018-10-03T08:22:27.151Z,99624.29
2018-10-03T08:24:55.614Z,99626.76
2018-10-03T08:27:24.102Z,99635.19
2018-10-03T08:29:52.586Z,99638.12
2018-10-03T08:32:21.163Z,99642.03
2018-10-03T08:34:49.649Z,99645.70
2018-10-03T08:37:18.221Z,99647.79
2018-10-03T08:39:46.706Z,99656.71
2018-10-03T08:42:15.349Z,99657.42
2018-10-03T08:44:43.910Z,99652.05
2018-10-03T08:47:12.397Z,99656.58
2018-10-03T08:49:40.835Z,99653.88
2018-10-03T08:52:09.274Z,99644.96
2018-10-03T08:54:37.682Z,99650.48
2018-10-03T08:57:07.236Z,99650.57
2018-10-03T08:59:35.682Z,99643.37
2018-10-03T09:02:04.425Z,99640.50
2018-10-03T09:04:33.193Z,99641.19
2018-10-03T09:07:01.766Z,99649.19
2018-10-03T09:09:30.197Z,99642.74
2018-10-03T09:11:58.887Z,99641.70
2018-10-03T09:14:27.747Z,99642.84
2018-10-03T09:16:56.342Z,99650.08
2018-10-03T09:19:25.229Z,99649.22
2018-10-03T09:21:53.816Z,99647.52
2018-10-03T09:24:22.350Z,99643.97
2018-10-03T09:26:50.865Z,99650.64
2018-10-03T09:29:19.566Z,99651.30
2018-10-03T09:31:48.418Z,99649.86
2018-10-03T09:34:17.813Z,99650.39
2018-10-03T09:36:46.303Z,99651.32
2018-10-03T09:39:14.750Z,99649.13
2018-10-03T09:41:43.292Z,99651.20
2018-10-03T09:44:12.191Z,99646.52
2018-10-03T09:46:41.386Z,99641.39
2018-10-03T09:49:09.905Z,99644.33
2018-10-03T09:51:38.446Z,99635.47
2018-10-03T09:54:07.053Z,99641.23
2018-10-03T09:56:36.058Z,99639.55
2018-10-03T09:59:04.833Z,99647.05
2018-10-03T10:01:34.256Z,99643.23
2018-10-03T10:04:04.532Z,99648.74
2018-10-03T10:06:34.091Z,99634.55
2018-10-03T10:09:03.891Z,99635.29
2018-10-03T10:11:32.582Z,99629.80
2018-10-03T10:14:00.878Z,99630.16
2018-10-03T10:16:29.350Z,99634.20
2018-10-03T10:18:57.932Z,99643.12
2018-10-03T10:21:26.519Z,99645.31
2018-10-03T10:23:55.017Z,99653.13
2018-10-03T10:26:23.629Z,99647.96
2018-10-03T10:28:52.110Z,99652.69
2018-10-03T10:31:20.698Z,99655.24
2018-10-03T10:33:49.218Z,99657.59
2018-10-03T10:36:17.897Z,99657.91
2018-10-03T10:38:46.440Z,99655.06
2018-10-03T10:41:15.072Z,99644.07
2018-10-03T10:43:43.507Z,99645.50
2018-10-03T10:46:12.054Z,99639.39
2018-10-03T10:48:40.571Z,99638.66
2018-10-03T10:51:09.069Z,99643.84
2018-10-03T10:53:37.561Z,99640.89
2018-10-03T10:56:06.253Z,99650.67
2018-10-03T10:58:35.067Z,99649.41
2018-10-03T11:01:03.624Z,99649.73
2018-10-03T11:03:32.369Z,99645.01
2018-10-03T11:06:00.841Z,99632.53
2018-10-03T11:08:29.374Z,99636.90
2018-10-03T11:10:57.969Z,99641.63
2018-10-03T11:13:26.553Z,99640.19
2018-10-03T11:15:55.268Z,99640.63
2018-10-03T11:18:23.729Z,99641.05
2018-10-03T11:20:52.216Z,99638.33
2018-10-03T11:23:20.831Z,99642.73
2018-10-03T11:25:49.362Z,99647.06
2018-10-03T11:28:18.084Z,99643.30
2018-10-03T11:30:46.590Z,99636.27
2018-10-03T11:33:15.581Z,99630.77
2018-10-03T11:35:44.162Z,99634.25
2018-10-03T11:38:12.735Z,99628.77
2018-10-03T11:40:41.208Z,99620.84
2018-10-03T11:43:09.677Z,99617.88
2018-10-03T11:45:38.138Z,99616.70
2018-10-03T11:48:06.775Z,99610.65
2018-10-03T11:50:35.380Z,99608.92
2018-10-03T11:53:04.021Z,99608.17
2018-10-03T11:55:32.507Z,99609.34
2018-10-03T11:58:01.010Z,99611.81
2018-10-03T12:00:29.591Z,99612.91
2018-10-03T12:02:58.279Z,99614.86
2018-10-03T12:05:26.670Z,99612.56
2018-10-03T12:07:56.141Z,99613.92
2018-10-03T12:10:24.625Z,99607.69
2018-10-03T12:12:53.103Z,99617.45
2018-10-03T12:15:21.557Z,99610.36
2018-10-03T12:17:50.065Z,99609.89
2018-10-03T12:20:18.637Z,99606.55
2018-10-03T12:22:47.165Z,99605.81
2018-10-03T12:25:15.875Z,99600.94
2018-10-03T12:27:44.428Z,99595.44
2018-10-03T12:30:13.035Z,99595.55
2018-10-03T12:32:41.523Z,99594.93
2018-10-03T12:35:10.058Z,99588.20
2018-10-03T12:37:38.479Z,99587.55
2018-10-03T12:40:07.029Z,99581.44
2018-10-03T12:42:35.547Z,99584.33
2018-10-03T12:45:04.185Z,99585.66
2018-10-03T12:47:32.613Z,99585.47
2018-10-03T12:50:01.107Z,99583.14
2018-10-03T12:52:29.573Z,99588.26
2018-10-03T12:54:58.129Z,99591.77
2018-10-03T12:57:26.685Z,99587.56
2018-10-03T12:59:55.171Z,99588.45
2018-10-03T13:02:23.626Z,99577.41
2018-10-03T13:04:52.104Z,99579.08
2018-10-03T13:07:20.734Z,99581.81
2018-10-03T13:09:49.200Z,99583.11
2018-10-03T13:12:17.718Z,99584.81
2018-10-03T13:14:46.290Z,99572.47
2018-10-03T13:17:14.788Z,99576.93
2018-10-03T13:19:43.536Z,99564.13
2018-10-03T13:22:12.015Z,99570.55
2018-10-03T13:24:40.443Z,99571.94
2018-10-03T13:27:08.945Z,99573.89
2018-10-03T13:29:37.578Z,99580.04
2018-10-03T13:32:06.370Z,99580.56
2018-10-03T13:34:34.782Z,99574.97
2018-10-03T13:37:03.523Z,99582.37
2018-10-03T13:39:32.077Z,99574.44
2018-10-03T13:42:00.758Z,99566.33
2018-10-03T13:44:29.326Z,99567.78
2018-10-03T13:46:57.906Z,99567.56
2018-10-03T13:49:26.550Z,99565.97
2018-10-03T13:51:55.037Z,99562.06
2018-10-03T13:54:23.504Z,99564.05
2018-10-03T13:56:51.987Z,99563.31
2018-10-03T13:59:20.690Z,99556.84
2018-10-03T14:01:49.286Z,99557.13
2018-10-03T14:04:18.060Z,99559.50
2018-10-03T14:06:46.621Z,99552.16
2018-10-03T14:09:15.071Z,99545.80
2018-10-03T14:11:43.707Z,99539.66
2018-10-03T14:14:12.137Z,99543.13
2018-10-03T14:16:40.590Z,99534.03
2018-10-03T14:19:09.159Z,99540.87
2018-10-03T14:21:37.731Z,99535.11
2018-10-03T14:24:06.270Z,99536.40
2018-10-03T14:26:34.769Z,99544.63
2018-10-03T14:29:03.236Z,99545.77
2018-10-03T14:31:31.733Z,99537.49
2018-10-03T14:34:00.225Z,99530.83
2018-10-03T14:36:28.734Z,99532.58
2018-10-03T14:38:57.330Z,99533.67
2018-10-03T14:41:25.898Z,99539.72
2018-10-03T14:43:54.475Z,99540.80
2018-10-03T14:46:23.112Z,99544.58
2018-10-03T14:48:51.642Z,99539.95
2018-10-03T14:51:20.162Z,99537.50
2018-10-03T14:53:48.808Z,99539.39
2018-10-03T14:56:17.379Z,99530.46
2018-10-03T14:58:46.003Z,99534.81
2018-10-03T15:01:14.541Z,99531.73
2018-10-03T15:03:43.066Z,99534.20
2018-10-03T15:06:11.659Z,99531.88
2018-10-03T15:08:40.175Z,99531.57
2018-10-03T15:11:08.701Z,99536.23
2018-10-03T15:13:37.138Z,99528.75
2018-10-03T15:16:05.670Z,99530.45
2018-10-03T15:18:34.190Z,99531.47
2018-10-03T15:21:02.706Z,99532.45
2018-10-03T15:23:31.202Z,99523.50
2018-10-03T15:25:59.813Z,99526.63
2018-10-03T15:28:28.286Z,99523.25
2018-10-03T15:30:56.980Z,99520.32
2018-10-03T15:33:25.550Z,99523.59
2018-10-03T15:35:54.115Z,99520.22
2018-10-03T15:38:22.559Z,99515.16
2018-10-03T15:40:51.008Z,99517.53
2018-10-03T15:43:19.653Z,99522.89
2018-10-03T15:45:48.130Z,99524.78
2018-10-03T15:48:16.596Z,99527.98
2018-10-03T15:50:45.134Z,99535.65
2018-10-03T15:53:13.661Z,99532.73
2018-10-03T15:55:42.165Z,99531.44
2018-10-03T15:58:10.600Z,99521.66
2018-10-03T16:00:39.103Z,99522.27
2018-10-03T16:03:07.643Z,99530.12
2018-10-03T16:05:36.186Z,99534.53
2018-10-03T16:08:04.865Z,99531.36
2018-10-03T16:10:33.357Z,99525.23
2018-10-03T16:13:01.816Z,99526.23
2018-10-03T16:15:30.281Z,99524.37
2018-10-03T16:17:58.863Z,99534.02
2018-10-03T16:20:27.496Z,99525.02
2018-10-03T16:22:55.950Z,99527.06
2018-10-03T16:25:24.513Z,99521.60
2018-10-03T16:27:53.030Z,99523.13
2018-10-03T16:30:21.618Z,99526.52
2018-10-03T16:32:50.165Z,99526.67
2018-10-03T16:35:18.769Z,99525.55
2018-10-03T16:37:47.262Z,99519.98
2018-10-03T16:40:15.867Z,99520.95
2018-10-03T16:42:44.415Z,99525.25
2018-10-03T16:45:12.894Z,99528.14
2018-10-03T16:47:41.414Z,99537.06
2018-10-03T16:50:09.875Z,99533.47
2018-10-03T16:52:38.382Z,99540.30
2018-10-03T16:55:06.934Z,99542.80
2018-10-03T16:57:35.436Z,99542.23
2018-10-03T17:00:04.038Z,99534.60
2018-10-03T17:02:32.973Z,99542.09
2018-10-03T17:05:01.513Z,99544.92
2018-10-03T17:07:30.117Z,99546.16
2018-10-03T17:09:58.792Z,99541.95
2018-10-03T17:12:27.586Z,99544.97
2018-10-03T17:14:56.114Z,99550.38
2018-10-03T17:17:24.707Z,99549.28
2018-10-03T17:19:53.169Z,99546.40
2018-10-03T17:22:21.674Z,99554.47
2018-10-03T17:24:50.146Z,99557.45
2018-10-03T17:27:19.025Z,99559.53
2018-10-03T17:29:47.560Z,99558.67
2018-10-03T17:32:16.494Z,99560.74
2018-10-03T17:34:45.012Z,99568.56
2018-10-03T17:37:13.635Z,99567.56
2018-10-03T17:39:42.083Z,99566.08
2018-10-03T17:42:10.713Z,99572.45
2018-10-03T17:44:39.210Z,99581.20
2018-10-03T17:47:07.914Z,99575.29
2018-10-03T17:49:36.339Z,99575.52
2018-10-03T17:52:05.175Z,99578.20
2018-10-03T17:54:33.667Z,99580.48
2018-10-03T17:57:02.174Z,99576.93
2018-10-03T17:59:30.631Z,99574.69
2018-10-03T18:02:01.856Z,99582.37
2018-10-03T18:04:30.534Z,99588.33
2018-10-03T18:06:59.329Z,99585.38
2018-10-03T18:09:27.954Z,99588.29
2018-10-03T18:11:56.630Z,99586.53
2018-10-03T18:14:25.116Z,99593.31
2018-10-03T18:16:53.582Z,99597.06
2018-10-03T18:19:22.075Z,99603.27
2018-10-03T18:21:50.573Z,99606.11
2018-10-03T18:24:19.705Z,99599.25
2018-10-03T18:26:48.264Z,99608.89
2018-10-03T18:29:17.118Z,99612.33
2018-10-03T18:31:45.618Z,99617.63
2018-10-03T18:34:14.396Z,99617.77
2018-10-03T18:36:42.846Z,99626.36
2018-10-03T18:39:11.673Z,99618.97
2018-10-03T18:41:40.394Z,99622.59
2018-10-03T18:44:09.211Z,99617.55
2018-10-03T18:46:37.713Z,99621.36
2018-10-03T18:49:06.436Z,99626.73
2018-10-03T18:51:35.137Z,99628.30
2018-10-03T18:54:03.920Z,99627.03
2018-10-03T18:56:32.449Z,99630.17
2018-10-03T18:59:00.991Z,99630.66
2018-10-03T19:01:29.497Z,99629.41
2018-10-03T19:03:58.069Z,99632.02
2018-10-03T19:06:26.603Z,99630.91
2018-10-03T19:08:55.073Z,99637.44
2018-10-03T19:11:23.568Z,99638.44
2018-10-03T19:13:52.059Z,99638.70
2018-10-03T19:16:20.802Z,99632.44
2018-10-03T19:18:49.318Z,99635.70
2018-10-03T19:21:17.961Z,99642.13
2018-10-03T19:23:46.483Z,99639.17
2018-10-03T19:26:15.005Z,99641.59
2018-10-03T19:28:43.450Z,99636.94
2018-10-03T19:31:11.893Z,99637.34
2018-10-03T19:33:40.410Z,99640.45
2018-10-03T19:36:08.879Z,99641.24
2018-10-03T19:38:37.389Z,99644.23
2018-10-03T19:41:06.087Z,99642.06
2018-10-03T19:43:34.786Z,99642.09
2018-10-03T19:46:03.314Z,99640.97
2018-10-03T19:48:31.866Z,99646.51
2018-10-03T19:51:00.487Z,99645.86
2018-10-03T19:53:33.336Z,99641.78
2018-10-03T19:56:03.058Z,99645.45
2018-10-03T19:58:31.823Z,99644.70
2018-10-03T20:01:00.507Z,99642.66
2018-10-03T20:03:29.145Z,99638.86
2018-10-03T20:05:57.689Z,99638.66
2018-10-03T20:08:26.221Z,99635.06
2018-10-03T20:10:54.769Z,99643.26
2018-10-03T20:13:23.282Z,99641.55
2018-10-03T20:15:52.324Z,99646.70
2018-10-03T20:18:21.642Z,99641.56
2018-10-03T20:20:50.342Z,99642.13
2018-10-03T20:23:19.424Z,99638.32
2018-10-03T20:25:48.609Z,99636.99
2018-10-03T20:28:17.326Z,99635.98
2018-10-03T20:30:45.838Z,99637.48
2018-10-03T20:33:14.313Z,99638.82
2018-10-03T20:35:42.770Z,99637.31
2018-10-03T20:38:11.513Z,99631.28
2018-10-03T20:40:40.031Z,99634.73
2018-10-03T20:43:08.550Z,99636.06
2018-10-03T20:45:37.000Z,99631.20
2018-10-03T20:48:05.545Z,99633.20
2018-10-03T20:50:34.109Z,99630.52
2018-10-03T20:53:02.589Z,99626.72
2018-10-03T20:55:31.049Z,99628.63
2018-10-03T20:57:59.589Z,99628.82
2018-10-03T21:00:28.285Z,99630.23
2018-10-03T21:02:56.783Z,99626.52
2018-10-03T21:05:25.427Z,99627.11
2018-10-03T21:07:54.135Z,99620.60
2018-10-03T21:10:22.662Z,99620.32
2018-10-03T21:12:51.133Z,99617.19
2018-10-03T21:15:19.969Z,99616.98
2018-10-03T21:17:48.559Z,99624.80
2018-10-03T21:20:17.151Z,99620.42
2018-10-03T21:22:45.801Z,99620.15
2018-10-03T21:25:14.294Z,99611.94
2018-10-03T21:27:42.784Z,99620.41
2018-10-03T21:30:11.344Z,99614.97
2018-10-03T21:32:39.798Z,99616.88
2018-10-03T21:35:08.490Z,99614.89
2018-10-03T21:37:36.957Z,99616.42
2018-10-03T21:40:05.647Z,99613.75
2018-10-03T21:42:34.127Z,99615.84
2018-10-03T21:45:02.623Z,99617.17
2018-10-03T21:47:31.085Z,99616.81
2018-10-03T21:49:59.721Z,99620.41
2018-10-03T21:52:28.304Z,99614.13
2018-10-03T21:54:56.926Z,99610.67
2018-10-03T21:57:25.418Z,99612.39
2018-10-03T21:59:53.916Z,99618.09
2018-10-03T22:02:22.422Z,99622.28
2018-10-03T22:04:50.883Z,99617.50
2018-10-03T22:07:19.523Z,99616.84
2018-10-03T22:09:48.033Z,99621.68
2018-10-03T22:12:16.747Z,99620.36
2018-10-03T22:14:45.226Z,99612.06
2018-10-03T22:17:19.081Z,99616.62
2018-10-03T22:19:47.911Z,99611.18
2018-10-03T22:22:16.600Z,99610.59
2018-10-03T22:24:45.077Z,99604.59
2018-10-03T22:27:13.589Z,99612.30
2018-10-03T22:29:42.054Z,99605.59
2018-10-03T22:32:10.793Z,99611.71
2018-10-03T22:34:39.582Z,99610.56
2018-10-03T22:37:08.494Z,99609.97
2018-10-03T22:39:36.993Z,99609.49
2018-10-03T22:42:05.780Z,99617.72
2018-10-03T22:44:34.294Z,99618.27
2018-10-03T22:47:02.845Z,99616.05
2018-10-03T22:49:31.366Z,99617.20
2018-10-03T22:51:59.977Z,99610.34
2018-10-03T22:54:28.665Z,99625.39
2018-10-03T22:56:57.182Z,99618.13
2018-10-03T22:59:25.929Z,99617.27
2018-10-03T23:01:54.490Z,99610.05
2018-10-03T23:04:23.070Z,99612.42
2018-10-03T23:06:51.653Z,99603.64
2018-10-03T23:09:20.299Z,99611.83
2018-10-03T23:11:48.993Z,99610.39
2018-10-03T23:14:17.727Z,99609.61
2018-10-03T23:16:46.277Z,99610.28
2018-10-03T23:19:14.887Z,99606.64
2018-10-03T23:21:43.601Z,99604.61
2018-10-03T23:24:12.129Z,99612.27
2018-10-03T23:26:40.608Z,99612.57
2018-10-03T23:29:09.193Z,99611.39
2018-10-03T23:31:37.678Z,99617.46
2018-10-03T23:34:06.903Z,99613.64
2018-10-03T23:36:35.721Z,99606.20
2018-10-03T23:39:05.989Z,99617.15
2018-10-03T23:41:34.576Z,99613.70
2018-10-03T23:44:03.050Z,99618.73
2018-10-03T23:46:31.522Z,99617.84
2018-10-03T23:49:00.239Z,99622.39
2018-10-03T23:51:28.954Z,99615.17
2018-10-03T23:53:57.461Z,99618.97
2018-10-03T23:56:26.038Z,99615.89
2018-10-03T23:58:54.566Z,99622.97
